sensor_id;sensor_type;location;lat;lon;timestamp;P1;durP1;ratioP1;P2;durP2;ratioP2
12962;SDS011;6546;49.882;8.666;2023-06-19T00:00:04;8.13;;;6.32;;
12962;SDS011;6546;49.882;8.666;2023-06-19T00:02:37;6.97;;;6.28;;
12962;SDS011;6546;49.882;8.666;2023-06-19T00:05:04;8.88;;;7.00;;
12962;SDS011;6546;49.882;8.666;2023-06-19T00:07:32;7.20;;;6.50;;
12962;SDS011;6546;49.882;8.666;2023-06-19T00:09:59;7.47;;;6.78;;
12962;SDS011;6546;49.882;8.666;2023-06-19T00:12:25;7.43;;;6.80;;
12962;SDS011;6546;49.882;8.666;2023-06-19T00:14:53;6.77;;;6.27;;
12962;SDS011;6546;49.882;8.666;2023-06-19T00:17:20;7.45;;;6.75;;
12962;SDS011;6546;49.882;8.666;2023-06-19T00:19:46;7.10;;;6.45;;
12962;SDS011;6546;49.882;8.666;2023-06-19T00:22:14;8.55;;;6.80;;
12962;SDS011;6546;49.882;8.666;2023-06-19T00:24:40;7.13;;;6.53;;
12962;SDS011;6546;49.882;8.666;2023-06-19T00:27:07;7.75;;;7.15;;
12962;SDS011;6546;49.882;8.666;2023-06-19T00:29:33;7.93;;;7.22;;
12962;SDS011;6546;49.882;8.666;2023-06-19T00:32:02;7.87;;;7.07;;
12962;SDS011;6546;49.882;8.666;2023-06-19T00:34:29;7.65;;;7.05;;
12962;SDS011;6546;49.882;8.666;2023-06-19T00:36:57;8.07;;;7.38;;
12962;SDS011;6546;49.882;8.666;2023-06-19T00:39:24;7.45;;;6.82;;
12962;SDS011;6546;49.882;8.666;2023-06-19T00:41:51;9.40;;;7.65;;
12962;SDS011;6546;49.882;8.666;2023-06-19T00:44:18;7.77;;;6.97;;
12962;SDS011;6546;49.882;8.666;2023-06-19T00:46:45;7.97;;;7.18;;
12962;SDS011;6546;49.882;8.666;2023-06-19T00:49:13;7.95;;;7.18;;
12962;SDS011;6546;49.882;8.666;2023-06-19T00:51:41;8.00;;;7.25;;
12962;SDS011;6546;49.882;8.666;2023-06-19T00:54:07;8.48;;;7.18;;
12962;SDS011;6546;49.882;8.666;2023-06-19T00:56:35;7.93;;;7.22;;
12962;SDS011;6546;49.882;8.666;2023-06-19T00:59:05;7.97;;;7.28;;
12962;SDS011;6546;49.882;8.666;2023-06-19T01:01:33;8.67;;;7.97;;
12962;SDS011;6546;49.882;8.666;2023-06-19T01:04:00;8.70;;;7.82;;
12962;SDS011;6546;49.882;8.666;2023-06-19T01:06:29;8.50;;;7.80;;
12962;SDS011;6546;49.882;8.666;2023-06-19T01:09:04;8.63;;;7.83;;
12962;SDS011;6546;49.882;8.666;2023-06-19T01:11:35;8.35;;;7.50;;
12962;SDS011;6546;49.882;8.666;2023-06-19T01:14:08;8.85;;;7.93;;
12962;SDS011;6546;49.882;8.666;2023-06-19T01:16:40;8.60;;;7.80;;
12962;SDS011;6546;49.882;8.666;2023-06-19T01:19:09;8.35;;;7.60;;
12962;SDS011;6546;49.882;8.666;2023-06-19T01:21:38;7.53;;;6.93;;
12962;SDS011;6546;49.882;8.666;2023-06-19T01:24:06;7.53;;;6.82;;
12962;SDS011;6546;49.882;8.666;2023-06-19T01:26:33;7.93;;;7.22;;
12962;SDS011;6546;49.882;8.666;2023-06-19T01:29:00;7.67;;;7.07;;
12962;SDS011;6546;49.882;8.666;2023-06-19T01:31:30;8.33;;;7.53;;
12962;SDS011;6546;49.882;8.666;2023-06-19T01:33:59;7.63;;;6.93;;
12962;SDS011;6546;49.882;8.666;2023-06-19T01:36:27;8.03;;;7.33;;
12962;SDS011;6546;49.882;8.666;2023-06-19T01:38:56;8.07;;;7.23;;
12962;SDS011;6546;49.882;8.666;2023-06-19T01:41:26;8.53;;;7.60;;
12962;SDS011;6546;49.882;8.666;2023-06-19T01:43:53;8.07;;;7.40;;
12962;SDS011;6546;49.882;8.666;2023-06-19T01:46:20;10.53;;;7.70;;
12962;SDS011;6546;49.882;8.666;2023-06-19T01:48:47;9.33;;;8.40;;
12962;SDS011;6546;49.882;8.666;2023-06-19T01:51:14;8.27;;;7.57;;
12962;SDS011;6546;49.882;8.666;2023-06-19T01:53:40;7.88;;;7.18;;
12962;SDS011;6546;49.882;8.666;2023-06-19T01:56:07;8.88;;;8.05;;
12962;SDS011;6546;49.882;8.666;2023-06-19T01:58:35;7.78;;;7.13;;
12962;SDS011;6546;49.882;8.666;2023-06-19T02:01:02;9.00;;;8.20;;
12962;SDS011;6546;49.882;8.666;2023-06-19T02:03:28;8.38;;;7.57;;
12962;SDS011;6546;49.882;8.666;2023-06-19T02:05:55;9.47;;;7.73;;
12962;SDS011;6546;49.882;8.666;2023-06-19T02:08:22;8.13;;;7.43;;
12962;SDS011;6546;49.882;8.666;2023-06-19T02:10:49;10.02;;;8.15;;
12962;SDS011;6546;49.882;8.666;2023-06-19T02:13:15;8.85;;;8.05;;
12962;SDS011;6546;49.882;8.666;2023-06-19T02:15:43;10.80;;;8.45;;
12962;SDS011;6546;49.882;8.666;2023-06-19T02:18:10;9.73;;;8.73;;
12962;SDS011;6546;49.882;8.666;2023-06-19T02:20:37;9.30;;;8.40;;
12962;SDS011;6546;49.882;8.666;2023-06-19T02:23:04;8.40;;;7.63;;
12962;SDS011;6546;49.882;8.666;2023-06-19T02:25:30;8.67;;;7.87;;
12962;SDS011;6546;49.882;8.666;2023-06-19T02:27:58;9.63;;;7.87;;
12962;SDS011;6546;49.882;8.666;2023-06-19T02:30:25;9.47;;;8.40;;
12962;SDS011;6546;49.882;8.666;2023-06-19T02:32:53;9.37;;;8.37;;
12962;SDS011;6546;49.882;8.666;2023-06-19T02:35:19;9.00;;;8.10;;
12962;SDS011;6546;49.882;8.666;2023-06-19T02:37:46;8.87;;;7.97;;
12962;SDS011;6546;49.882;8.666;2023-06-19T02:40:15;8.97;;;8.17;;
12962;SDS011;6546;49.882;8.666;2023-06-19T02:42:42;9.37;;;7.63;;
12962;SDS011;6546;49.882;8.666;2023-06-19T02:45:11;9.18;;;8.38;;
12962;SDS011;6546;49.882;8.666;2023-06-19T02:47:38;9.40;;;8.10;;
12962;SDS011;6546;49.882;8.666;2023-06-19T02:50:06;9.13;;;8.23;;
12962;SDS011;6546;49.882;8.666;2023-06-19T02:52:33;8.70;;;7.93;;
12962;SDS011;6546;49.882;8.666;2023-06-19T02:55:00;8.45;;;7.75;;
12962;SDS011;6546;49.882;8.666;2023-06-19T02:57:26;8.33;;;7.53;;
12962;SDS011;6546;49.882;8.666;2023-06-19T02:59:53;11.33;;;7.90;;
12962;SDS011;6546;49.882;8.666;2023-06-19T03:02:19;8.13;;;7.43;;
12962;SDS011;6546;49.882;8.666;2023-06-19T03:04:46;8.37;;;7.57;;
12962;SDS011;6546;49.882;8.666;2023-06-19T03:07:15;12.33;;;7.97;;
12962;SDS011;6546;49.882;8.666;2023-06-19T03:09:42;8.97;;;8.07;;
12962;SDS011;6546;49.882;8.666;2023-06-19T03:12:09;8.27;;;7.57;;
12962;SDS011;6546;49.882;8.666;2023-06-19T03:14:35;9.87;;;7.70;;
12962;SDS011;6546;49.882;8.666;2023-06-19T03:17:02;8.73;;;7.93;;
12962;SDS011;6546;49.882;8.666;2023-06-19T03:19:29;9.07;;;8.33;;
12962;SDS011;6546;49.882;8.666;2023-06-19T03:21:56;8.60;;;7.73;;
12962;SDS011;6546;49.882;8.666;2023-06-19T03:24:24;8.37;;;7.57;;
12962;SDS011;6546;49.882;8.666;2023-06-19T03:26:52;8.70;;;8.00;;
12962;SDS011;6546;49.882;8.666;2023-06-19T03:29:18;8.73;;;7.93;;
12962;SDS011;6546;49.882;8.666;2023-06-19T03:31:45;8.37;;;7.67;;
12962;SDS011;6546;49.882;8.666;2023-06-19T03:34:11;8.33;;;7.63;;
12962;SDS011;6546;49.882;8.666;2023-06-19T03:36:38;8.07;;;7.27;;
12962;SDS011;6546;49.882;8.666;2023-06-19T03:39:05;9.02;;;8.13;;
12962;SDS011;6546;49.882;8.666;2023-06-19T03:41:33;8.27;;;7.57;;
12962;SDS011;6546;49.882;8.666;2023-06-19T03:43:59;8.53;;;7.63;;
12962;SDS011;6546;49.882;8.666;2023-06-19T03:46:26;8.60;;;7.80;;
12962;SDS011;6546;49.882;8.666;2023-06-19T03:48:53;7.70;;;7.07;;
12962;SDS011;6546;49.882;8.666;2023-06-19T03:51:20;9.30;;;7.93;;
12962;SDS011;6546;49.882;8.666;2023-06-19T03:53:46;8.30;;;7.43;;
12962;SDS011;6546;49.882;8.666;2023-06-19T03:56:13;9.77;;;8.80;;
12962;SDS011;6546;49.882;8.666;2023-06-19T03:58:41;8.60;;;7.70;;
12962;SDS011;6546;49.882;8.666;2023-06-19T04:01:08;9.70;;;7.97;;
12962;SDS011;6546;49.882;8.666;2023-06-19T04:03:34;10.63;;;7.80;;
12962;SDS011;6546;49.882;8.666;2023-06-19T04:06:01;9.23;;;8.43;;
12962;SDS011;6546;49.882;8.666;2023-06-19T04:08:28;10.20;;;7.93;;
12962;SDS011;6546;49.882;8.666;2023-06-19T04:10:54;8.70;;;7.90;;
12962;SDS011;6546;49.882;8.666;2023-06-19T04:13:21;7.83;;;7.13;;
12962;SDS011;6546;49.882;8.666;2023-06-19T04:15:54;8.10;;;7.30;;
12962;SDS011;6546;49.882;8.666;2023-06-19T04:18:21;7.37;;;6.77;;
12962;SDS011;6546;49.882;8.666;2023-06-19T04:20:48;8.37;;;7.67;;
12962;SDS011;6546;49.882;8.666;2023-06-19T04:23:14;7.93;;;7.13;;
12962;SDS011;6546;49.882;8.666;2023-06-19T04:25:41;8.40;;;7.17;;
12962;SDS011;6546;49.882;8.666;2023-06-19T04:28:10;7.60;;;6.90;;
12962;SDS011;6546;49.882;8.666;2023-06-19T04:30:36;7.63;;;6.93;;
12962;SDS011;6546;49.882;8.666;2023-06-19T04:33:05;7.97;;;7.20;;
12962;SDS011;6546;49.882;8.666;2023-06-19T04:35:33;8.07;;;7.37;;
12962;SDS011;6546;49.882;8.666;2023-06-19T04:38:05;7.00;;;6.40;;
12962;SDS011;6546;49.882;8.666;2023-06-19T04:40:31;7.80;;;7.10;;
12962;SDS011;6546;49.882;8.666;2023-06-19T04:42:58;7.77;;;6.97;;
12962;SDS011;6546;49.882;8.666;2023-06-19T04:45:25;8.17;;;7.47;;
12962;SDS011;6546;49.882;8.666;2023-06-19T04:47:52;7.47;;;6.72;;
12962;SDS011;6546;49.882;8.666;2023-06-19T04:50:20;8.83;;;6.67;;
12962;SDS011;6546;49.882;8.666;2023-06-19T04:52:47;7.30;;;6.70;;
12962;SDS011;6546;49.882;8.666;2023-06-19T04:55:15;7.33;;;6.67;;
12962;SDS011;6546;49.882;8.666;2023-06-19T04:57:42;6.78;;;6.15;;
12962;SDS011;6546;49.882;8.666;2023-06-19T05:00:09;6.77;;;6.20;;
12962;SDS011;6546;49.882;8.666;2023-06-19T05:02:36;7.97;;;6.67;;
12962;SDS011;6546;49.882;8.666;2023-06-19T05:05:03;7.00;;;6.00;;
12962;SDS011;6546;49.882;8.666;2023-06-19T05:07:32;6.68;;;5.82;;
12962;SDS011;6546;49.882;8.666;2023-06-19T05:09:59;8.35;;;7.57;;
12962;SDS011;6546;49.882;8.666;2023-06-19T05:12:25;7.80;;;7.10;;
12962;SDS011;6546;49.882;8.666;2023-06-19T05:14:52;7.07;;;6.47;;
12962;SDS011;6546;49.882;8.666;2023-06-19T05:17:18;8.48;;;6.85;;
12962;SDS011;6546;49.882;8.666;2023-06-19T05:19:45;8.25;;;6.43;;
12962;SDS011;6546;49.882;8.666;2023-06-19T05:22:12;6.90;;;6.35;;
12962;SDS011;6546;49.882;8.666;2023-06-19T05:24:40;7.03;;;6.43;;
12962;SDS011;6546;49.882;8.666;2023-06-19T05:27:06;6.70;;;6.00;;
12962;SDS011;6546;49.882;8.666;2023-06-19T05:29:33;6.47;;;5.97;;
12962;SDS011;6546;49.882;8.666;2023-06-19T05:32:00;6.07;;;5.13;;
12962;SDS011;6546;49.882;8.666;2023-06-19T05:34:26;7.82;;;5.50;;
12962;SDS011;6546;49.882;8.666;2023-06-19T05:36:53;7.35;;;5.72;;
12962;SDS011;6546;49.882;8.666;2023-06-19T05:39:20;6.82;;;5.40;;
12962;SDS011;6546;49.882;8.666;2023-06-19T05:41:50;8.35;;;5.68;;
12962;SDS011;6546;49.882;8.666;2023-06-19T05:44:16;6.55;;;5.32;;
12962;SDS011;6546;49.882;8.666;2023-06-19T05:46:44;5.80;;;5.30;;
12962;SDS011;6546;49.882;8.666;2023-06-19T05:49:10;6.03;;;5.43;;
12962;SDS011;6546;49.882;8.666;2023-06-19T05:51:37;5.38;;;4.88;;
12962;SDS011;6546;49.882;8.666;2023-06-19T05:54:04;6.30;;;4.88;;
12962;SDS011;6546;49.882;8.666;2023-06-19T05:56:30;7.82;;;4.90;;
12962;SDS011;6546;49.882;8.666;2023-06-19T05:58:59;5.63;;;5.00;;
12962;SDS011;6546;49.882;8.666;2023-06-19T06:01:26;8.27;;;4.72;;
12962;SDS011;6546;49.882;8.666;2023-06-19T06:03:53;5.28;;;4.70;;
12962;SDS011;6546;49.882;8.666;2023-06-19T06:06:20;80.05;;;9.48;;
12962;SDS011;6546;49.882;8.666;2023-06-19T06:08:47;30.83;;;6.10;;
12962;SDS011;6546;49.882;8.666;2023-06-19T06:11:13;8.60;;;5.68;;
12962;SDS011;6546;49.882;8.666;2023-06-19T06:13:40;13.68;;;5.68;;
12962;SDS011;6546;49.882;8.666;2023-06-19T06:16:08;9.70;;;4.95;;
12962;SDS011;6546;49.882;8.666;2023-06-19T06:18:35;11.85;;;5.43;;
12962;SDS011;6546;49.882;8.666;2023-06-19T06:21:02;5.40;;;4.60;;
12962;SDS011;6546;49.882;8.666;2023-06-19T06:23:29;8.35;;;5.00;;
12962;SDS011;6546;49.882;8.666;2023-06-19T06:25:56;15.77;;;4.80;;
12962;SDS011;6546;49.882;8.666;2023-06-19T06:28:27;7.28;;;4.28;;
12962;SDS011;6546;49.882;8.666;2023-06-19T06:30:57;13.00;;;5.85;;
12962;SDS011;6546;49.882;8.666;2023-06-19T06:33:25;10.38;;;5.10;;
12962;SDS011;6546;49.882;8.666;2023-06-19T06:35:54;7.80;;;4.50;;
12962;SDS011;6546;49.882;8.666;2023-06-19T06:38:21;4.63;;;3.63;;
12962;SDS011;6546;49.882;8.666;2023-06-19T06:40:48;4.72;;;3.67;;
12962;SDS011;6546;49.882;8.666;2023-06-19T06:43:15;5.93;;;4.28;;
12962;SDS011;6546;49.882;8.666;2023-06-19T06:45:42;3.97;;;3.63;;
12962;SDS011;6546;49.882;8.666;2023-06-19T06:48:08;4.90;;;3.92;;
12962;SDS011;6546;49.882;8.666;2023-06-19T06:50:36;6.93;;;3.92;;
12962;SDS011;6546;49.882;8.666;2023-06-19T06:53:03;4.40;;;4.00;;
12962;SDS011;6546;49.882;8.666;2023-06-19T06:55:30;4.95;;;3.83;;
12962;SDS011;6546;49.882;8.666;2023-06-19T06:57:56;4.53;;;3.78;;
12962;SDS011;6546;49.882;8.666;2023-06-19T07:00:23;5.40;;;3.80;;
12962;SDS011;6546;49.882;8.666;2023-06-19T07:02:50;5.05;;;3.28;;
12962;SDS011;6546;49.882;8.666;2023-06-19T07:05:16;3.90;;;3.50;;
12962;SDS011;6546;49.882;8.666;2023-06-19T07:07:45;7.32;;;4.07;;
12962;SDS011;6546;49.882;8.666;2023-06-19T07:10:11;5.70;;;3.38;;
12962;SDS011;6546;49.882;8.666;2023-06-19T07:12:45;8.63;;;3.90;;
12962;SDS011;6546;49.882;8.666;2023-06-19T07:15:12;4.63;;;3.60;;
12962;SDS011;6546;49.882;8.666;2023-06-19T07:17:39;10.95;;;9.85;;
12962;SDS011;6546;49.882;8.666;2023-06-19T07:20:06;7.63;;;4.28;;
12962;SDS011;6546;49.882;8.666;2023-06-19T07:22:33;5.35;;;3.83;;
12962;SDS011;6546;49.882;8.666;2023-06-19T07:25:02;4.70;;;3.58;;
12962;SDS011;6546;49.882;8.666;2023-06-19T07:27:29;4.13;;;3.67;;
12962;SDS011;6546;49.882;8.666;2023-06-19T07:29:56;5.80;;;3.75;;
12962;SDS011;6546;49.882;8.666;2023-06-19T07:32:24;6.60;;;4.07;;
12962;SDS011;6546;49.882;8.666;2023-06-19T07:34:51;4.72;;;3.60;;
12962;SDS011;6546;49.882;8.666;2023-06-19T07:37:19;7.13;;;4.00;;
12962;SDS011;6546;49.882;8.666;2023-06-19T07:39:46;4.50;;;3.83;;
12962;SDS011;6546;49.882;8.666;2023-06-19T07:42:15;5.28;;;3.72;;
12962;SDS011;6546;49.882;8.666;2023-06-19T07:44:42;6.78;;;5.38;;
12962;SDS011;6546;49.882;8.666;2023-06-19T07:47:09;12.38;;;5.18;;
12962;SDS011;6546;49.882;8.666;2023-06-19T07:49:36;8.18;;;3.95;;
12962;SDS011;6546;49.882;8.666;2023-06-19T07:52:03;22.75;;;5.88;;
12962;SDS011;6546;49.882;8.666;2023-06-19T07:54:30;10.68;;;4.30;;
12962;SDS011;6546;49.882;8.666;2023-06-19T07:56:57;12.63;;;4.43;;
12962;SDS011;6546;49.882;8.666;2023-06-19T07:59:25;11.25;;;4.00;;
12962;SDS011;6546;49.882;8.666;2023-06-19T08:01:52;9.48;;;4.40;;
12962;SDS011;6546;49.882;8.666;2023-06-19T08:04:19;12.40;;;4.15;;
12962;SDS011;6546;49.882;8.666;2023-06-19T08:06:45;8.00;;;4.15;;
12962;SDS011;6546;49.882;8.666;2023-06-19T08:09:12;9.15;;;4.15;;
12962;SDS011;6546;49.882;8.666;2023-06-19T08:11:39;6.65;;;4.13;;
12962;SDS011;6546;49.882;8.666;2023-06-19T08:14:05;8.27;;;4.30;;
12962;SDS011;6546;49.882;8.666;2023-06-19T08:16:33;4.07;;;3.67;;
12962;SDS011;6546;49.882;8.666;2023-06-19T08:19:00;4.90;;;4.03;;
12962;SDS011;6546;49.882;8.666;2023-06-19T08:21:27;8.18;;;3.80;;
12962;SDS011;6546;49.882;8.666;2023-06-19T08:23:53;8.77;;;5.18;;
12962;SDS011;6546;49.882;8.666;2023-06-19T08:26:20;9.85;;;6.40;;
12962;SDS011;6546;49.882;8.666;2023-06-19T08:28:47;23.30;;;5.43;;
12962;SDS011;6546;49.882;8.666;2023-06-19T08:31:14;8.02;;;4.45;;
12962;SDS011;6546;49.882;8.666;2023-06-19T08:33:43;8.68;;;4.20;;
12962;SDS011;6546;49.882;8.666;2023-06-19T08:36:10;6.32;;;4.53;;
12962;SDS011;6546;49.882;8.666;2023-06-19T08:38:36;6.63;;;3.90;;
12962;SDS011;6546;49.882;8.666;2023-06-19T08:41:03;8.25;;;4.82;;
12962;SDS011;6546;49.882;8.666;2023-06-19T08:43:30;9.88;;;4.63;;
12962;SDS011;6546;49.882;8.666;2023-06-19T08:46:00;7.13;;;4.93;;
12962;SDS011;6546;49.882;8.666;2023-06-19T08:48:34;6.82;;;4.13;;
12962;SDS011;6546;49.882;8.666;2023-06-19T08:51:03;7.05;;;4.35;;
12962;SDS011;6546;49.882;8.666;2023-06-19T08:53:32;10.65;;;4.82;;
12962;SDS011;6546;49.882;8.666;2023-06-19T08:56:00;10.55;;;4.03;;
12962;SDS011;6546;49.882;8.666;2023-06-19T08:58:27;7.07;;;4.90;;
12962;SDS011;6546;49.882;8.666;2023-06-19T09:00:53;4.80;;;4.40;;
12962;SDS011;6546;49.882;8.666;2023-06-19T09:03:20;12.40;;;4.50;;
12962;SDS011;6546;49.882;8.666;2023-06-19T09:05:47;12.23;;;5.00;;
12962;SDS011;6546;49.882;8.666;2023-06-19T09:08:17;6.90;;;4.43;;
12962;SDS011;6546;49.882;8.666;2023-06-19T09:10:53;5.05;;;3.88;;
12962;SDS011;6546;49.882;8.666;2023-06-19T09:13:21;12.20;;;4.43;;
12962;SDS011;6546;49.882;8.666;2023-06-19T09:15:56;8.25;;;4.43;;
12962;SDS011;6546;49.882;8.666;2023-06-19T09:18:25;4.68;;;4.13;;
12962;SDS011;6546;49.882;8.666;2023-06-19T09:20:52;12.27;;;4.78;;
12962;SDS011;6546;49.882;8.666;2023-06-19T09:23:21;4.85;;;4.35;;
12962;SDS011;6546;49.882;8.666;2023-06-19T09:25:48;9.30;;;4.45;;
12962;SDS011;6546;49.882;8.666;2023-06-19T09:28:16;17.40;;;4.85;;
12962;SDS011;6546;49.882;8.666;2023-06-19T09:30:51;8.63;;;6.20;;
12962;SDS011;6546;49.882;8.666;2023-06-19T09:33:21;18.30;;;7.43;;
12962;SDS011;6546;49.882;8.666;2023-06-19T09:35:49;20.98;;;6.30;;
12962;SDS011;6546;49.882;8.666;2023-06-19T09:38:17;47.50;;;10.20;;
12962;SDS011;6546;49.882;8.666;2023-06-19T09:40:46;14.00;;;6.03;;
12962;SDS011;6546;49.882;8.666;2023-06-19T09:43:14;7.43;;;5.03;;
12962;SDS011;6546;49.882;8.666;2023-06-19T09:45:46;51.60;;;8.93;;
12962;SDS011;6546;49.882;8.666;2023-06-19T09:48:16;17.52;;;6.22;;
12962;SDS011;6546;49.882;8.666;2023-06-19T09:50:45;11.70;;;5.57;;
12962;SDS011;6546;49.882;8.666;2023-06-19T09:53:16;14.63;;;4.63;;
12962;SDS011;6546;49.882;8.666;2023-06-19T09:55:46;12.85;;;5.30;;
12962;SDS011;6546;49.882;8.666;2023-06-19T09:58:15;5.45;;;4.47;;
12962;SDS011;6546;49.882;8.666;2023-06-19T10:00:43;6.32;;;4.53;;
12962;SDS011;6546;49.882;8.666;2023-06-19T10:03:11;7.43;;;4.93;;
12962;SDS011;6546;49.882;8.666;2023-06-19T10:05:39;15.77;;;11.65;;
12962;SDS011;6546;49.882;8.666;2023-06-19T10:08:06;8.52;;;5.63;;
12962;SDS011;6546;49.882;8.666;2023-06-19T10:10:33;8.20;;;4.60;;
12962;SDS011;6546;49.882;8.666;2023-06-19T10:13:12;8.90;;;4.32;;
12962;SDS011;6546;49.882;8.666;2023-06-19T10:15:40;5.78;;;4.63;;
12962;SDS011;6546;49.882;8.666;2023-06-19T10:18:12;4.43;;;3.95;;
12962;SDS011;6546;49.882;8.666;2023-06-19T10:20:41;9.48;;;4.55;;
12962;SDS011;6546;49.882;8.666;2023-06-19T10:23:10;9.13;;;6.18;;
12962;SDS011;6546;49.882;8.666;2023-06-19T10:25:38;7.72;;;4.68;;
12962;SDS011;6546;49.882;8.666;2023-06-19T10:28:17;7.05;;;4.18;;
12962;SDS011;6546;49.882;8.666;2023-06-19T10:30:44;4.63;;;4.22;;
12962;SDS011;6546;49.882;8.666;2023-06-19T10:33:11;8.43;;;4.05;;
12962;SDS011;6546;49.882;8.666;2023-06-19T10:35:38;6.10;;;3.72;;
12962;SDS011;6546;49.882;8.666;2023-06-19T10:38:06;6.00;;;4.25;;
12962;SDS011;6546;49.882;8.666;2023-06-19T10:40:34;9.90;;;4.30;;
12962;SDS011;6546;49.882;8.666;2023-06-19T10:43:02;7.60;;;4.65;;
12962;SDS011;6546;49.882;8.666;2023-06-19T10:45:30;7.93;;;4.25;;
12962;SDS011;6546;49.882;8.666;2023-06-19T10:47:57;5.88;;;5.15;;
12962;SDS011;6546;49.882;8.666;2023-06-19T10:50:27;6.25;;;4.30;;
12962;SDS011;6546;49.882;8.666;2023-06-19T10:52:54;4.57;;;3.67;;
12962;SDS011;6546;49.882;8.666;2023-06-19T10:55:23;5.22;;;4.13;;
12962;SDS011;6546;49.882;8.666;2023-06-19T10:57:50;5.60;;;4.43;;
12962;SDS011;6546;49.882;8.666;2023-06-19T11:00:24;4.53;;;4.10;;
12962;SDS011;6546;49.882;8.666;2023-06-19T11:02:55;6.05;;;4.30;;
12962;SDS011;6546;49.882;8.666;2023-06-19T11:05:22;5.72;;;4.32;;
12962;SDS011;6546;49.882;8.666;2023-06-19T11:07:53;13.45;;;4.90;;
12962;SDS011;6546;49.882;8.666;2023-06-19T11:10:21;5.78;;;4.25;;
12962;SDS011;6546;49.882;8.666;2023-06-19T11:12:49;6.45;;;3.85;;
12962;SDS011;6546;49.882;8.666;2023-06-19T11:15:16;4.70;;;3.90;;
12962;SDS011;6546;49.882;8.666;2023-06-19T11:17:43;6.30;;;4.00;;
12962;SDS011;6546;49.882;8.666;2023-06-19T11:20:12;5.43;;;4.10;;
12962;SDS011;6546;49.882;8.666;2023-06-19T11:22:40;8.75;;;3.97;;
12962;SDS011;6546;49.882;8.666;2023-06-19T11:25:08;12.88;;;4.95;;
12962;SDS011;6546;49.882;8.666;2023-06-19T11:27:38;4.45;;;4.05;;
12962;SDS011;6546;49.882;8.666;2023-06-19T11:30:06;6.13;;;3.97;;
12962;SDS011;6546;49.882;8.666;2023-06-19T11:32:35;7.63;;;4.03;;
12962;SDS011;6546;49.882;8.666;2023-06-19T11:35:07;17.52;;;5.65;;
12962;SDS011;6546;49.882;8.666;2023-06-19T11:37:39;8.25;;;4.45;;
12962;SDS011;6546;49.882;8.666;2023-06-19T11:40:06;10.30;;;4.80;;
12962;SDS011;6546;49.882;8.666;2023-06-19T11:42:45;6.43;;;3.78;;
12962;SDS011;6546;49.882;8.666;2023-06-19T11:45:17;5.50;;;3.50;;
12962;SDS011;6546;49.882;8.666;2023-06-19T11:47:44;4.47;;;4.00;;
12962;SDS011;6546;49.882;8.666;2023-06-19T11:50:12;5.85;;;3.60;;
12962;SDS011;6546;49.882;8.666;2023-06-19T11:52:42;7.65;;;3.88;;
12962;SDS011;6546;49.882;8.666;2023-06-19T11:55:10;5.80;;;3.72;;
12962;SDS011;6546;49.882;8.666;2023-06-19T11:57:36;5.70;;;3.92;;
12962;SDS011;6546;49.882;8.666;2023-06-19T12:00:11;5.53;;;3.88;;
12962;SDS011;6546;49.882;8.666;2023-06-19T12:02:40;3.88;;;3.55;;
12962;SDS011;6546;49.882;8.666;2023-06-19T12:05:07;4.60;;;3.88;;
12962;SDS011;6546;49.882;8.666;2023-06-19T12:07:34;3.90;;;3.53;;
12962;SDS011;6546;49.882;8.666;2023-06-19T12:10:02;3.47;;;3.17;;
12962;SDS011;6546;49.882;8.666;2023-06-19T12:12:30;8.98;;;4.10;;
12962;SDS011;6546;49.882;8.666;2023-06-19T12:14:56;9.35;;;3.78;;
12962;SDS011;6546;49.882;8.666;2023-06-19T12:17:23;3.38;;;3.10;;
12962;SDS011;6546;49.882;8.666;2023-06-19T12:19:50;4.80;;;3.33;;
12962;SDS011;6546;49.882;8.666;2023-06-19T12:22:18;20.75;;;4.13;;
12962;SDS011;6546;49.882;8.666;2023-06-19T12:24:45;12.65;;;4.35;;
12962;SDS011;6546;49.882;8.666;2023-06-19T12:27:13;9.05;;;3.90;;
12962;SDS011;6546;49.882;8.666;2023-06-19T12:29:40;5.38;;;3.95;;
12962;SDS011;6546;49.882;8.666;2023-06-19T12:32:07;4.20;;;3.13;;
12962;SDS011;6546;49.882;8.666;2023-06-19T12:34:33;3.70;;;3.40;;
12962;SDS011;6546;49.882;8.666;2023-06-19T12:37:00;8.15;;;3.83;;
12962;SDS011;6546;49.882;8.666;2023-06-19T12:39:27;4.22;;;3.78;;
12962;SDS011;6546;49.882;8.666;2023-06-19T12:41:54;3.63;;;3.25;;
12962;SDS011;6546;49.882;8.666;2023-06-19T12:44:22;17.38;;;5.25;;
12962;SDS011;6546;49.882;8.666;2023-06-19T12:46:49;10.57;;;4.40;;
12962;SDS011;6546;49.882;8.666;2023-06-19T12:49:17;4.70;;;4.20;;
12962;SDS011;6546;49.882;8.666;2023-06-19T12:51:44;5.15;;;3.60;;
12962;SDS011;6546;49.882;8.666;2023-06-19T12:54:14;5.95;;;4.05;;
12962;SDS011;6546;49.882;8.666;2023-06-19T12:56:40;7.72;;;4.03;;
12962;SDS011;6546;49.882;8.666;2023-06-19T12:59:07;8.13;;;4.05;;
12962;SDS011;6546;49.882;8.666;2023-06-19T13:01:35;8.50;;;7.60;;
12962;SDS011;6546;49.882;8.666;2023-06-19T13:04:02;8.82;;;5.72;;
12962;SDS011;6546;49.882;8.666;2023-06-19T13:06:29;9.68;;;7.78;;
12962;SDS011;6546;49.882;8.666;2023-06-19T13:08:56;9.95;;;7.32;;
12962;SDS011;6546;49.882;8.666;2023-06-19T13:11:22;5.90;;;4.85;;
12962;SDS011;6546;49.882;8.666;2023-06-19T13:13:49;4.57;;;4.18;;
12962;SDS011;6546;49.882;8.666;2023-06-19T13:16:15;4.32;;;4.03;;
12962;SDS011;6546;49.882;8.666;2023-06-19T13:18:44;5.60;;;4.35;;
12962;SDS011;6546;49.882;8.666;2023-06-19T13:21:11;14.23;;;12.80;;
12962;SDS011;6546;49.882;8.666;2023-06-19T13:23:39;14.60;;;12.20;;
12962;SDS011;6546;49.882;8.666;2023-06-19T13:26:05;5.82;;;5.30;;
12962;SDS011;6546;49.882;8.666;2023-06-19T13:28:33;6.78;;;4.40;;
12962;SDS011;6546;49.882;8.666;2023-06-19T13:30:59;5.95;;;4.50;;
12962;SDS011;6546;49.882;8.666;2023-06-19T13:33:26;5.95;;;5.10;;
12962;SDS011;6546;49.882;8.666;2023-06-19T13:35:54;5.80;;;5.20;;
12962;SDS011;6546;49.882;8.666;2023-06-19T13:38:20;5.68;;;3.88;;
12962;SDS011;6546;49.882;8.666;2023-06-19T13:40:47;5.68;;;5.20;;
12962;SDS011;6546;49.882;8.666;2023-06-19T13:43:15;4.65;;;4.15;;
12962;SDS011;6546;49.882;8.666;2023-06-19T13:45:41;5.40;;;4.90;;
12962;SDS011;6546;49.882;8.666;2023-06-19T13:48:08;5.53;;;5.03;;
12962;SDS011;6546;49.882;8.666;2023-06-19T13:50:35;4.00;;;3.63;;
12962;SDS011;6546;49.882;8.666;2023-06-19T13:53:03;8.98;;;7.63;;
12962;SDS011;6546;49.882;8.666;2023-06-19T13:55:30;5.95;;;5.35;;
12962;SDS011;6546;49.882;8.666;2023-06-19T13:57:56;5.72;;;4.00;;
12962;SDS011;6546;49.882;8.666;2023-06-19T14:00:23;5.38;;;4.88;;
12962;SDS011;6546;49.882;8.666;2023-06-19T14:02:50;4.28;;;3.80;;
12962;SDS011;6546;49.882;8.666;2023-06-19T14:05:16;3.60;;;3.30;;
12962;SDS011;6546;49.882;8.666;2023-06-19T14:07:43;5.57;;;3.42;;
12962;SDS011;6546;49.882;8.666;2023-06-19T14:10:11;4.53;;;3.70;;
12962;SDS011;6546;49.882;8.666;2023-06-19T14:12:38;3.92;;;3.40;;
12962;SDS011;6546;49.882;8.666;2023-06-19T14:15:06;3.97;;;3.67;;
12962;SDS011;6546;49.882;8.666;2023-06-19T14:17:34;4.03;;;3.55;;
12962;SDS011;6546;49.882;8.666;2023-06-19T14:20:00;4.20;;;3.80;;
12962;SDS011;6546;49.882;8.666;2023-06-19T14:22:29;4.00;;;3.60;;
12962;SDS011;6546;49.882;8.666;2023-06-19T14:24:56;4.43;;;3.50;;
12962;SDS011;6546;49.882;8.666;2023-06-19T14:27:26;4.50;;;3.78;;
12962;SDS011;6546;49.882;8.666;2023-06-19T14:29:53;4.78;;;3.50;;
12962;SDS011;6546;49.882;8.666;2023-06-19T14:32:20;3.75;;;3.25;;
12962;SDS011;6546;49.882;8.666;2023-06-19T14:34:46;3.80;;;3.40;;
12962;SDS011;6546;49.882;8.666;2023-06-19T14:37:13;4.25;;;3.30;;
12962;SDS011;6546;49.882;8.666;2023-06-19T14:39:39;3.28;;;3.08;;
12962;SDS011;6546;49.882;8.666;2023-06-19T14:42:06;6.35;;;3.67;;
12962;SDS011;6546;49.882;8.666;2023-06-19T14:44:34;5.50;;;3.55;;
12962;SDS011;6546;49.882;8.666;2023-06-19T14:47:01;3.50;;;3.20;;
12962;SDS011;6546;49.882;8.666;2023-06-19T14:49:27;4.07;;;3.75;;
12962;SDS011;6546;49.882;8.666;2023-06-19T14:51:54;4.35;;;3.10;;
12962;SDS011;6546;49.882;8.666;2023-06-19T14:54:22;4.03;;;3.30;;
12962;SDS011;6546;49.882;8.666;2023-06-19T14:56:48;3.83;;;3.38;;
12962;SDS011;6546;49.882;8.666;2023-06-19T14:59:16;3.60;;;3.30;;
12962;SDS011;6546;49.882;8.666;2023-06-19T15:01:45;6.57;;;3.75;;